Aeroporto :
LOGIN :

Iscrizione | Disclaimer

   EN    FR    IT 

 










Sommario :    VFR   VFR Marginale   IFR   IFR Intensivo   IFR Molto Intensivo
Visibilità : 
Base nubi : 
>= 8 km
>= 3000ft
5 / 8 km
1000 / 3000 ft
1500m / 5 km
500 / 1000 ft
800 / 1500m
200 / 500 ft
< 800m
< 200 ft
Simboli :   Temporali  Nebbia  Neve Forte  Precipitazioni Forti  Vento > 20 kt
SIGMETs :   Varie  Temporali  Ghiacco  Turbolenza  Onda orograficha  Ceneri Vulcaniche







- Altitudine del aeroporto : 7 ft
- Codice IATA : VCE


LIPZ - Marco Polo Int. Venezia

ULTIMO METAR :
  • 190920Z 36004KT 9999 BKN070 03/M02 Q1026 NOSIG

METARs OBSOLETI :
  • 190850Z 32003KT 300V360 9999 BKN070 02/M01 Q1026 NOSIG
  • 190820Z 35004KT 9999 BKN070 01/M02 Q1026 NOSIG
  • 190750Z 31004KT 9999 BKN070 00/M02 Q1026 NOSIG
  • 190720Z 34005KT 9999 SCT070 00/M02 Q1025 NOSIG
  • 190650Z 01005KT CAVOK M01/M02 Q1025 NOSIG

TAF TAF LIPZ
Valido dal 19 a 06 ore il 20 a 12 ore UTC


190500Z 1906/2012 03005KT 8000 NSC
TEMPO 1920/2009 4000 DZ
Nessun NOTAM noto per questo aeroporto.



MetMap, La meteo Aeronautica in un colpo d'occhio ! - Copyright ORBIFLY Dicembre 2007 - Disclaimer

ORBIFLY MET'MAP TEAM :

Programmazione e sviluppo : Alexandra Zaïnal
Concezione e sviluppo : Baudouin d'Aumeries
Co-Programmazione e sviluppo : Marc-Olivier Méhu
Supporto tecnico e logistico : Manuel Goepfert
Aiuto per la traduzione : Arnaldo La Scala

Contatto : metmap@orbifly.com




FONTI E CREDITI :

   NOAA